Time;durP1;ratioP1;P1;durP2;ratioP2;P2;SDS_P1;SDS_P2;PMS_P1;PMS_P2;Temp;Humidity;BMP_temperature;BMP_pressure;BME280_temperature;BME280_humidity;BME280_pressure;Samples;Min_cycle;Max_cycle;Signal;HPM_P1;HPM_P2
2023/08/15 00:01:49;;;;;;;8.77;7.57;;;;;;;22.64;100.00;97980.22;5055857;28;20201;-74
2023/08/15 00:04:16;;;;;;;9.57;7.50;;;;;;;22.65;100.00;97975.59;5055808;28;20284;-74
2023/08/15 00:06:42;;;;;;;8.18;7.47;;;;;;;22.65;100.00;97972.91;5055415;28;20205;-74
2023/08/15 00:09:09;;;;;;;8.23;7.43;;;;;;;22.60;100.00;97964.84;5053771;28;20735;-74
2023/08/15 00:11:35;;;;;;;7.97;7.32;;;;;;;22.60;100.00;97965.66;5055434;28;20221;-74
2023/08/15 00:14:01;;;;;;;10.40;8.00;;;;;;;22.62;100.00;97963.47;5055569;28;20578;-74
2023/08/15 00:16:28;;;;;;;8.75;8.02;;;;;;;22.60;100.00;97964.84;5055701;28;20288;-74
2023/08/15 00:18:54;;;;;;;9.38;7.85;;;;;;;22.65;100.00;97970.19;5055018;28;20225;-74
2023/08/15 00:21:20;;;;;;;10.18;7.90;;;;;;;22.63;100.00;97972.38;5055864;28;20209;-74
2023/08/15 00:23:47;;;;;;;9.52;8.10;;;;;;;22.69;100.00;97968.47;5054836;28;20296;-74
2023/08/15 00:26:13;;;;;;;10.50;9.10;;;;;;;22.67;100.00;97971.50;5055402;28;20201;-74
2023/08/15 00:28:40;;;;;;;8.52;7.65;;;;;;;22.68;100.00;97970.38;5054200;28;20224;-74
2023/08/15 00:31:07;;;;;;;8.30;7.60;;;;;;;22.68;100.00;97969.56;5055264;28;20566;-74
2023/08/15 00:33:33;;;;;;;9.20;8.30;;;;;;;22.71;100.00;97960.84;5055240;28;20211;-74
2023/08/15 00:36:00;;;;;;;10.45;8.10;;;;;;;22.76;100.00;97963.47;5055127;28;20205;-74
2023/08/15 00:38:26;;;;;;;9.23;8.35;;;;;;;22.75;100.00;97961.88;5051975;28;20206;-74
2023/08/15 00:40:52;;;;;;;9.15;8.23;;;;;;;22.77;100.00;97960.47;5041918;28;20197;-74
2023/08/15 00:43:19;;;;;;;9.48;8.55;;;;;;;22.82;100.00;97956.84;5055141;28;20201;-74
2023/08/15 00:45:45;;;;;;;9.80;8.90;;;;;;;22.72;100.00;97957.03;5054597;28;20205;-74
2023/08/15 00:48:13;;;;;;;9.32;8.18;;;;;;;22.70;100.00;97959.25;5053325;28;20297;-74
2023/08/15 00:50:42;;;;;;;9.05;8.18;;;;;;;22.72;100.00;97963.28;5055283;28;20221;-74
2023/08/15 00:53:10;;;;;;;9.45;8.40;;;;;;;22.67;100.00;97949.81;5054929;28;20231;-74
2023/08/15 00:55:37;;;;;;;11.40;8.82;;;;;;;22.61;100.00;97951.00;5054099;28;20205;-74
2023/08/15 00:58:04;;;;;;;9.65;8.68;;;;;;;22.60;100.00;97952.09;5054304;28;20208;-74
2023/08/15 01:00:31;;;;;;;10.02;8.15;;;;;;;22.64;100.00;97955.81;5054996;28;20232;-74
2023/08/15 01:02:57;;;;;;;8.88;8.02;;;;;;;22.52;100.00;97949.28;5036759;28;20590;-74
2023/08/15 01:05:25;;;;;;;9.02;8.23;;;;;;;22.54;100.00;97956.00;5054400;28;20215;-74
2023/08/15 01:07:52;;;;;;;9.32;8.40;;;;;;;22.53;100.00;97957.13;5053694;28;20288;-74
2023/08/15 01:10:19;;;;;;;8.57;7.85;;;;;;;22.57;100.00;97954.59;5052800;28;20228;-74
2023/08/15 01:12:56;;;;;;;10.85;8.57;;;;;;;22.49;100.00;97947.16;5054510;28;20209;-74
2023/08/15 01:15:29;;;;;;;8.70;7.78;;;;;;;22.56;100.00;97950.31;5054535;28;20189;-74
2023/08/15 01:18:08;;;;;;;9.40;8.35;;;;;;;22.50;100.00;97944.16;5053720;28;20688;-74
2023/08/15 01:20:37;;;;;;;8.82;7.85;;;;;;;22.43;100.00;97938.28;5036897;28;20671;-74
2023/08/15 01:23:07;;;;;;;8.93;7.70;;;;;;;22.42;100.00;97946.69;5054429;28;20212;-74
2023/08/15 01:25:40;;;;;;;8.95;8.05;;;;;;;22.46;100.00;97945.03;5054322;28;20208;-74
2023/08/15 01:28:11;;;;;;;9.25;7.88;;;;;;;22.40;100.00;97947.00;5052539;28;20216;-74
2023/08/15 01:30:52;;;;;;;8.52;7.93;;;;;;;22.36;100.00;97943.28;5053234;28;20573;-74
2023/08/15 01:33:38;;;;;;;9.48;8.45;;;;;;;22.29;100.00;97942.84;5054276;28;20189;-74
2023/08/15 01:36:17;;;;;;;9.75;8.48;;;;;;;22.30;100.00;97932.84;5054254;28;20223;-74
2023/08/15 01:38:51;;;;;;;9.75;8.75;;;;;;;22.32;100.00;97933.31;5053161;28;20220;-74
2023/08/15 01:41:21;;;;;;;10.75;9.07;;;;;;;22.37;100.00;97923.22;5054178;28;20185;-74
2023/08/15 01:43:48;;;;;;;9.25;8.15;;;;;;;22.30;100.00;97930.13;5053198;28;20209;-74
2023/08/15 01:46:15;;;;;;;9.23;8.38;;;;;;;22.23;100.00;97937.81;5051747;28;20201;-74
2023/08/15 01:48:44;;;;;;;9.60;8.75;;;;;;;22.12;100.00;97937.16;5053285;28;20225;-74
2023/08/15 01:51:12;;;;;;;8.88;8.00;;;;;;;22.06;100.00;97937.56;5053819;28;20225;-74
2023/08/15 01:53:39;;;;;;;8.95;8.15;;;;;;;22.07;100.00;97931.84;5053372;28;20212;-74
2023/08/15 01:56:06;;;;;;;8.85;8.05;;;;;;;21.98;100.00;97932.81;5053732;28;20569;-74
2023/08/15 01:58:32;;;;;;;8.98;8.13;;;;;;;21.95;100.00;97933.41;5051456;28;20225;-74
2023/08/15 02:00:59;;;;;;;9.80;8.20;;;;;;;22.07;100.00;97933.75;5053306;28;20201;-74
2023/08/15 02:03:26;;;;;;;11.60;8.40;;;;;;;22.04;100.00;97935.16;5053417;28;20676;-74
2023/08/15 02:05:52;;;;;;;9.02;8.23;;;;;;;22.03;100.00;97933.53;5053428;28;20672;-74
2023/08/15 02:08:20;;;;;;;8.60;7.75;;;;;;;21.97;100.00;97931.22;5052655;28;20205;-74
2023/08/15 02:10:46;;;;;;;9.15;8.35;;;;;;;22.04;100.00;97937.88;5053373;28;20229;-74
2023/08/15 02:13:13;;;;;;;9.18;8.38;;;;;;;21.95;100.00;97930.69;5053388;28;20233;-74
2023/08/15 02:15:39;;;;;;;10.10;8.13;;;;;;;21.95;100.00;97930.69;5052626;28;20205;-74
2023/08/15 02:18:05;;;;;;;9.05;8.15;;;;;;;21.96;100.00;97932.28;5052491;28;20213;-74
2023/08/15 02:20:32;;;;;;;8.55;7.85;;;;;;;21.86;100.00;97933.28;5052964;28;20704;-74
2023/08/15 02:22:58;;;;;;;9.55;8.68;;;;;;;21.82;100.00;97936.84;5053550;28;20205;-74
2023/08/15 02:25:25;;;;;;;9.10;8.20;;;;;;;21.79;100.00;97926.63;5053558;28;20219;-74
2023/08/15 02:27:51;;;;;;;11.73;8.48;;;;;;;21.79;100.00;97926.63;5053090;28;20220;-74
2023/08/15 02:30:17;;;;;;;8.98;8.07;;;;;;;21.82;100.00;97924.13;5048628;28;20688;-74
2023/08/15 02:32:44;;;;;;;9.95;8.95;;;;;;;21.79;100.00;97924.72;5033744;28;20206;-74
2023/08/15 02:35:11;;;;;;;9.20;8.32;;;;;;;21.88;100.00;97922.94;5033383;28;20255;-74
2023/08/15 02:37:37;;;;;;;9.43;8.57;;;;;;;21.90;100.00;97930.78;5033144;28;20614;-74
2023/08/15 02:40:06;;;;;;;9.45;8.57;;;;;;;21.83;100.00;97928.44;5049558;28;20715;-74
2023/08/15 02:42:33;;;;;;;9.65;8.27;;;;;;;21.86;100.00;97924.34;5052251;28;20208;-74
2023/08/15 02:45:00;;;;;;;8.40;7.60;;;;;;;21.86;100.00;97925.16;5052929;28;20702;-73
2023/08/15 02:47:26;;;;;;;9.50;8.38;;;;;;;21.74;100.00;97926.69;5052168;28;20205;-74
2023/08/15 02:49:52;;;;;;;8.68;7.97;;;;;;;21.75;100.00;97926.38;5052399;28;20227;-74
2023/08/15 02:52:19;;;;;;;10.88;8.18;;;;;;;21.77;100.00;97924.22;5053104;28;20211;-74
2023/08/15 02:54:45;;;;;;;8.93;8.23;;;;;;;21.79;100.00;97921.22;5053109;28;20240;-74
2023/08/15 02:57:11;;;;;;;9.25;8.20;;;;;;;21.76;100.00;97927.19;5053199;28;20217;-74
2023/08/15 02:59:38;;;;;;;8.88;8.00;;;;;;;21.78;100.00;97925.81;5052144;28;20225;-74
2023/08/15 03:02:04;;;;;;;8.75;8.05;;;;;;;21.84;100.00;97916.50;5049806;28;20213;-74
2023/08/15 03:04:30;;;;;;;9.32;8.40;;;;;;;21.76;100.00;97919.91;5052040;28;20216;-74
2023/08/15 03:06:57;;;;;;;9.00;8.20;;;;;;;21.78;100.00;97914.16;5052752;28;20220;-74
2023/08/15 03:09:23;;;;;;;10.10;8.70;;;;;;;21.75;100.00;97903.94;5053383;28;20240;-74
2023/08/15 03:11:49;;;;;;;8.85;8.02;;;;;;;21.65;100.00;97915.69;5053513;28;20229;-74
2023/08/15 03:14:16;;;;;;;8.85;7.95;;;;;;;21.64;100.00;97921.38;5055764;28;20209;-74
2023/08/15 03:16:42;;;;;;;8.68;7.97;;;;;;;21.64;100.00;97937.63;5056661;28;20212;-74
2023/08/15 03:19:09;;;;;;;9.02;7.50;;;;;;;21.70;100.00;97923.75;5056546;28;20251;-74
2023/08/15 03:21:35;;;;;;;9.02;8.18;;;;;;;21.73;100.00;97927.78;5056121;28;20201;-74
2023/08/15 03:24:01;;;;;;;11.07;7.60;;;;;;;21.67;100.00;97928.94;5056133;28;20205;-74
2023/08/15 03:26:28;;;;;;;9.68;8.65;;;;;;;21.51;100.00;97927.53;5056493;28;20212;-74
2023/08/15 03:28:56;;;;;;;9.00;8.37;;;;;;;21.50;100.00;97929.44;5055041;28;20755;-74
2023/08/15 03:31:23;;;;;;;9.13;8.25;;;;;;;21.42;100.00;97938.19;5054181;28;20225;-74
2023/08/15 03:33:49;;;;;;;10.13;9.03;;;;;;;21.42;100.00;97935.50;5056261;28;20201;-74
2023/08/15 03:36:15;;;;;;;11.27;8.47;;;;;;;21.39;100.00;97936.06;5056105;28;20216;-74
2023/08/15 03:38:42;;;;;;;9.27;8.47;;;;;;;21.33;100.00;97948.06;5055920;28;20236;-74
2023/08/15 03:41:08;;;;;;;8.48;7.72;;;;;;;21.36;100.00;97952.88;5055240;28;20198;-74
2023/08/15 03:43:36;;;;;;;9.33;8.43;;;;;;;21.36;100.00;97950.19;5055649;28;20668;-74
2023/08/15 03:46:04;;;;;;;8.80;8.00;;;;;;;21.43;100.00;97952.53;5055088;28;20571;-74
2023/08/15 03:48:30;;;;;;;9.40;8.60;;;;;;;21.33;100.00;97956.16;5055733;28;20237;-74
2023/08/15 03:50:58;;;;;;;8.73;8.00;;;;;;;21.28;100.00;97952.72;5054873;28;20223;-74
2023/08/15 03:53:24;;;;;;;9.67;7.93;;;;;;;21.23;100.00;97950.06;5056065;28;20205;-74
2023/08/15 03:55:52;;;;;;;9.37;8.50;;;;;;;21.14;100.00;97941.81;5055572;28;20545;-74
2023/08/15 03:58:20;;;;;;;8.90;8.10;;;;;;;21.19;100.00;97955.25;5055546;28;20201;-74
2023/08/15 04:00:47;;;;;;;8.93;8.23;;;;;;;21.17;100.00;97956.66;5052723;28;20193;-74
2023/08/15 04:03:14;;;;;;;8.53;7.73;;;;;;;21.15;100.00;97961.53;5055596;28;20216;-74
2023/08/15 04:05:43;;;;;;;9.23;8.43;;;;;;;21.16;100.00;97960.44;5055740;28;20207;-74
2023/08/15 04:08:09;;;;;;;10.57;8.53;;;;;;;21.12;100.00;97954.78;5056914;28;20209;-76
2023/08/15 04:10:39;;;;;;;9.33;8.27;;;;;;;21.19;100.00;97968.78;5056214;28;20236;-76
2023/08/15 04:13:07;;;;;;;9.53;8.00;;;;;;;21.18;100.00;97969.06;5058903;28;20205;-76
2023/08/15 04:15:35;;;;;;;9.90;8.67;;;;;;;21.16;100.00;97972.06;5059328;28;20205;-76
2023/08/15 04:18:06;;;;;;;9.47;8.47;;;;;;;21.18;100.00;97967.19;5057714;28;20208;-76
2023/08/15 04:20:33;;;;;;;9.57;8.67;;;;;;;21.23;100.00;97982.53;5057816;28;20216;-76
2023/08/15 04:22:59;;;;;;;9.50;8.43;;;;;;;21.31;100.00;97995.41;5056631;28;20216;-76
2023/08/15 04:25:26;;;;;;;10.13;9.10;;;;;;;21.36;100.00;97992.63;5056962;28;20205;-76
2023/08/15 04:27:52;;;;;;;7.80;7.03;;;;;;;21.50;100.00;97996.25;5056434;28;20280;-76
2023/08/15 04:30:20;;;;;;;7.07;6.43;;;;;;;21.48;100.00;98003.88;5057292;28;20696;-76
2023/08/15 04:32:47;;;;;;;7.47;6.73;;;;;;;21.39;100.00;97997.47;5056197;28;20675;-76
2023/08/15 04:35:14;;;;;;;8.80;7.40;;;;;;;21.41;100.00;98012.31;5052905;28;20212;-77
2023/08/15 04:37:41;;;;;;;8.63;7.00;;;;;;;21.22;100.00;98005.25;5056600;28;20280;-76
2023/08/15 04:40:12;;;;;;;9.10;6.83;;;;;;;21.23;100.00;98017.69;5056669;28;20244;-77
2023/08/15 04:42:38;;;;;;;10.97;8.00;;;;;;;21.17;100.00;98016.13;5054474;28;20205;-76
2023/08/15 04:45:05;;;;;;;8.10;7.30;;;;;;;21.18;100.00;98020.44;5055373;28;20204;-77
2023/08/15 04:47:33;;;;;;;7.10;6.45;;;;;;;21.25;100.00;98026.31;5056032;28;20201;-76
2023/08/15 04:49:59;;;;;;;8.47;7.23;;;;;;;21.23;100.00;98023.09;5054369;28;20222;-77
2023/08/15 04:52:55;;;;;;;8.37;7.10;;;;;;;21.20;100.00;98024.47;5055884;28;20225;-77
2023/08/15 04:55:22;;;;;;;8.40;7.07;;;;;;;21.22;100.00;98018.78;5056259;28;20186;-77
2023/08/15 04:57:48;;;;;;;8.50;7.00;;;;;;;21.25;100.00;98023.63;5055770;28;20291;-77
2023/08/15 05:00:17;;;;;;;8.20;7.40;;;;;;;21.21;100.00;98017.97;5055428;28;20217;-77
2023/08/15 05:02:44;;;;;;;8.57;7.60;;;;;;;21.27;100.00;98019.53;5055408;28;20244;-77
2023/08/15 05:05:10;;;;;;;9.43;8.37;;;;;;;21.31;100.00;98022.47;5054424;28;20205;-77
2023/08/15 05:07:38;;;;;;;8.60;7.80;;;;;;;21.38;100.00;98028.34;5054841;28;20567;-77
2023/08/15 05:10:05;;;;;;;8.57;7.87;;;;;;;21.44;100.00;98016.34;5056270;28;20221;-77
2023/08/15 05:12:32;;;;;;;10.13;8.13;;;;;;;21.52;100.00;98015.72;5055536;28;20228;-77
2023/08/15 05:14:59;;;;;;;9.35;8.35;;;;;;;21.59;100.00;98027.78;5038095;28;20209;-77
2023/08/15 05:17:25;;;;;;;8.32;7.70;;;;;;;21.60;100.00;98026.69;5055264;28;20209;-77
2023/08/15 05:19:52;;;;;;;8.90;8.10;;;;;;;21.65;100.00;98031.22;5053987;28;20585;-74
2023/08/15 05:22:18;;;;;;;10.43;8.45;;;;;;;21.73;100.00;98031.44;5051867;28;20198;-74
2023/08/15 05:24:44;;;;;;;8.77;7.93;;;;;;;21.74;100.00;98034.91;5052543;28;20206;-74
2023/08/15 05:27:14;;;;;;;10.00;7.30;;;;;;;21.85;100.00;98037.22;5054022;28;20212;-75
2023/08/15 05:29:41;;;;;;;8.27;7.57;;;;;;;21.98;100.00;98043.81;5053977;28;20225;-74
2023/08/15 05:32:08;;;;;;;8.75;7.85;;;;;;;22.09;100.00;98042.56;5052526;28;20312;-74
2023/08/15 05:34:34;;;;;;;8.07;7.38;;;;;;;22.08;100.00;98032.84;5052578;28;20669;-74
2023/08/15 05:37:01;;;;;;;9.68;7.38;;;;;;;22.15;100.00;98044.13;5053765;28;20205;-75
2023/08/15 05:39:27;;;;;;;10.68;7.32;;;;;;;22.23;100.00;98029.91;5040790;28;20234;-75
2023/08/15 05:41:53;;;;;;;8.73;7.78;;;;;;;22.39;100.00;98039.41;5033457;28;20208;-74
2023/08/15 05:44:20;;;;;;;9.95;6.57;;;;;;;22.56;100.00;98040.50;5034329;28;20217;-75
2023/08/15 05:46:46;;;;;;;7.38;6.65;;;;;;;22.65;100.00;98048.78;5034668;28;20210;-75
2023/08/15 05:49:12;;;;;;;8.55;7.20;;;;;;;22.68;100.00;98040.03;5043202;28;20565;-74
2023/08/15 05:51:39;;;;;;;8.25;6.55;;;;;;;22.62;100.00;98047.47;5053701;28;20225;-75
2023/08/15 05:54:05;;;;;;;7.78;7.05;;;;;;;22.69;100.00;98047.06;5052449;28;20201;-75
2023/08/15 05:56:32;;;;;;;8.35;7.43;;;;;;;22.70;100.00;98057.59;5052960;28;20576;-75
2023/08/15 05:58:58;;;;;;;9.27;7.03;;;;;;;22.79;100.00;98063.97;5051811;28;20591;-77
2023/08/15 06:01:24;;;;;;;7.80;7.05;;;;;;;22.82;100.00;98065.28;5053637;28;20205;-77
2023/08/15 06:03:51;;;;;;;8.63;7.00;;;;;;;22.78;100.00;98075.09;5054785;28;20209;-77
2023/08/15 06:06:17;;;;;;;8.50;6.57;;;;;;;22.86;100.00;98087.97;5054005;28;20295;-77
2023/08/15 06:08:44;;;;;;;7.47;6.80;;;;;;;22.86;100.00;98087.97;5053653;28;20236;-77
2023/08/15 06:11:10;;;;;;;7.50;6.35;;;;;;;22.74;100.00;98096.56;5055384;28;20217;-77
2023/08/15 06:13:37;;;;;;;7.93;6.22;;;;;;;22.75;100.00;98097.41;5052377;28;20216;-77
2023/08/15 06:16:03;;;;;;;7.13;6.35;;;;;;;22.80;100.00;98100.03;5052641;28;20220;-77
2023/08/15 06:18:30;;;;;;;7.10;5.60;;;;;;;22.80;100.00;98106.22;5053265;28;20225;-77
2023/08/15 06:20:56;;;;;;;9.48;6.38;;;;;;;22.89;100.00;98101.75;5034985;28;20216;-77
2023/08/15 06:23:22;;;;;;;8.32;5.93;;;;;;;22.92;100.00;98103.09;5034727;28;20210;-77
2023/08/15 06:25:49;;;;;;;8.60;6.53;;;;;;;23.00;100.00;98111.34;5033252;28;20202;-75
2023/08/15 06:28:17;;;;;;;6.20;5.60;;;;;;;23.12;100.00;98113.56;5048903;28;20572;-75
2023/08/15 06:30:43;;;;;;;7.90;7.07;;;;;;;23.14;100.00;98109.47;5053177;28;20208;-75
2023/08/15 06:33:09;;;;;;;11.85;6.75;;;;;;;23.18;100.00;98096.91;5053184;28;20205;-75
2023/08/15 06:35:36;;;;;;;7.18;6.47;;;;;;;23.16;100.00;98101.03;5052965;28;20201;-75
2023/08/15 06:38:02;;;;;;;6.88;6.28;;;;;;;23.19;100.00;98103.16;5052215;28;20212;-75
2023/08/15 06:40:29;;;;;;;7.32;6.22;;;;;;;23.13;100.00;98120.59;5051045;28;20243;-75
2023/08/15 06:42:55;;;;;;;7.82;6.22;;;;;;;23.09;100.00;98111.44;5052082;28;20201;-75
2023/08/15 06:45:23;;;;;;;6.95;5.90;;;;;;;23.17;100.00;98127.03;5053141;28;20213;-75
2023/08/15 06:47:49;;;;;;;6.82;6.20;;;;;;;23.24;100.00;98127.50;5054295;28;20232;-75
2023/08/15 06:50:16;;;;;;;7.18;5.93;;;;;;;23.12;100.00;98119.00;5057543;28;20233;-75
2023/08/15 06:52:42;;;;;;;7.85;5.88;;;;;;;23.36;100.00;98130.53;5056947;28;20221;-75
2023/08/15 06:55:09;;;;;;;7.47;6.07;;;;;;;23.48;100.00;98130.84;5055899;28;20671;-75
2023/08/15 06:57:35;;;;;;;6.75;6.05;;;;;;;23.50;100.00;98134.06;5056676;28;20223;-75
2023/08/15 07:00:03;;;;;;;6.32;5.72;;;;;;;23.70;100.00;98134.47;5055493;28;20225;-75
2023/08/15 07:02:31;;;;;;;9.32;5.97;;;;;;;23.69;100.00;98140.25;5056107;28;20263;-75
2023/08/15 07:04:57;;;;;;;7.88;5.72;;;;;;;23.66;100.00;98138.91;5056198;28;20213;-75
2023/08/15 07:07:24;;;;;;;6.90;6.20;;;;;;;23.73;100.00;98146.66;5055769;28;20197;-75
2023/08/15 07:09:50;;;;;;;7.07;6.18;;;;;;;24.00;100.00;98146.69;5056381;28;20229;-75
2023/08/15 07:12:18;;;;;;;10.35;6.38;;;;;;;24.25;100.00;98141.50;5056507;28;20221;-75
2023/08/15 07:14:46;;;;;;;6.68;5.68;;;;;;;24.13;100.00;98146.69;5056749;28;20233;-76
2023/08/15 07:17:13;;;;;;;7.95;6.70;;;;;;;24.22;100.00;98141.31;5056210;28;20255;-74
2023/08/15 07:19:39;;;;;;;7.65;6.07;;;;;;;24.27;100.00;98152.09;5055786;28;20229;-75
2023/08/15 07:22:05;;;;;;;7.38;5.68;;;;;;;24.55;100.00;98142.75;5054708;28;20680;-75
2023/08/15 07:24:32;;;;;;;7.68;5.78;;;;;;;24.57;100.00;98141.38;5055865;28;20205;-75
2023/08/15 07:26:58;;;;;;;8.63;5.95;;;;;;;24.75;100.00;98153.22;5056194;28;20211;-75
2023/08/15 07:29:24;;;;;;;7.72;6.05;;;;;;;24.73;100.00;98155.41;5055233;28;20247;-75
2023/08/15 07:31:51;;;;;;;11.90;5.55;;;;;;;24.49;100.00;98161.13;5056025;28;20225;-75
2023/08/15 07:34:17;;;;;;;7.28;5.85;;;;;;;24.23;100.00;98160.03;5054882;28;20296;-75
2023/08/15 07:36:44;;;;;;;7.32;5.72;;;;;;;24.30;100.00;98156.91;5055975;28;20205;-75
2023/08/15 07:39:10;;;;;;;6.28;5.40;;;;;;;24.56;100.00;98150.59;5055347;28;20244;-77
2023/08/15 07:41:38;;;;;;;5.53;5.03;;;;;;;24.42;100.00;98151.78;5057551;28;20201;-76
2023/08/15 07:44:05;;;;;;;5.97;5.20;;;;;;;24.73;100.00;98156.25;5057654;28;20630;-77
2023/08/15 07:46:31;;;;;;;5.63;5.13;;;;;;;24.71;100.00;98152.22;5058061;28;20211;-77
2023/08/15 07:48:57;;;;;;;5.75;5.25;;;;;;;25.17;100.00;98153.53;5056742;28;20231;-77
2023/08/15 07:51:24;;;;;;;6.47;5.22;;;;;;;25.17;100.00;98147.28;5057458;28;20283;-77
2023/08/15 07:53:50;;;;;;;9.10;5.68;;;;;;;25.22;100.00;98144.44;5057523;28;20571;-77
2023/08/15 07:56:17;;;;;;;6.55;5.20;;;;;;;25.22;100.00;98138.97;5057395;28;20273;-76
2023/08/15 07:58:43;;;;;;;5.20;4.70;;;;;;;25.26;100.00;98137.25;5056265;28;20368;-76
2023/08/15 08:01:09;;;;;;;5.85;4.93;;;;;;;25.65;100.00;98135.41;5057850;28;20213;-77
2023/08/15 08:03:38;;;;;;;6.78;5.22;;;;;;;25.37;100.00;98139.44;5057071;28;20209;-76
2023/08/15 08:06:05;;;;;;;6.85;5.30;;;;;;;25.34;100.00;98144.69;5054729;28;20209;-74
2023/08/15 08:08:31;;;;;;;10.40;5.72;;;;;;;25.53;100.00;98139.84;5054694;28;20227;-75
2023/08/15 08:10:58;;;;;;;7.82;5.90;;;;;;;25.72;100.00;98141.22;5055342;28;20205;-75
2023/08/15 08:13:24;;;;;;;6.80;4.63;;;;;;;25.95;100.00;98142.78;5055120;28;20232;-74
2023/08/15 08:15:50;;;;;;;8.93;5.43;;;;;;;25.80;100.00;98153.25;5054489;28;20202;-74
2023/08/15 08:18:17;;;;;;;6.78;4.80;;;;;;;25.69;100.00;98152.72;5055039;28;20566;-75
2023/08/15 08:20:43;;;;;;;6.43;4.90;;;;;;;25.77;100.00;98154.69;5054714;28;20205;-74
2023/08/15 08:23:12;;;;;;;6.43;4.72;;;;;;;25.86;100.00;98150.06;5055139;28;20209;-74
2023/08/15 08:25:39;;;;;;;5.65;4.60;;;;;;;25.79;100.00;98138.03;5055075;28;20209;-74
2023/08/15 08:28:06;;;;;;;8.05;5.05;;;;;;;25.65;100.00;98134.63;5054794;28;20201;-74
2023/08/15 08:30:33;;;;;;;6.10;5.32;;;;;;;25.88;100.00;98130.69;5054387;28;20209;-74
2023/08/15 08:32:59;;;;;;;5.57;4.90;;;;;;;25.95;100.00;98136.50;5054595;28;20239;-74
2023/08/15 08:35:26;;;;;;;6.50;4.65;;;;;;;26.08;100.00;98132.88;5055028;28;20205;-75
2023/08/15 08:37:52;;;;;;;6.88;5.07;;;;;;;26.01;100.00;98132.53;5054652;28;20216;-75
2023/08/15 08:40:18;;;;;;;5.93;4.97;;;;;;;26.08;100.00;98138.31;5053665;28;20233;-75
2023/08/15 08:42:46;;;;;;;4.90;4.32;;;;;;;26.02;100.00;98142.31;5053576;28;20201;-75
2023/08/15 08:45:13;;;;;;;6.20;4.63;;;;;;;26.22;100.00;98150.69;5054590;28;20208;-74
2023/08/15 08:47:41;;;;;;;6.43;4.90;;;;;;;26.53;100.00;98142.41;5054227;28;20205;-75
2023/08/15 08:50:11;;;;;;;6.15;4.82;;;;;;;26.68;100.00;98141.97;5054198;28;20247;-75
2023/08/15 08:52:49;;;;;;;6.90;5.30;;;;;;;26.69;100.00;98143.59;5054791;28;20220;-75
2023/08/15 08:55:16;;;;;;;5.53;4.75;;;;;;;26.56;100.00;98153.50;5054683;28;20200;-75
2023/08/15 08:57:49;;;;;;;7.57;5.13;;;;;;;26.54;100.00;98152.19;5053596;28;20213;-75
2023/08/15 09:00:17;;;;;;;6.45;5.85;;;;;;;26.65;100.00;98146.13;5053863;28;20225;-75
2023/08/15 09:02:44;;;;;;;5.13;4.53;;;;;;;26.55;100.00;98149.13;5037281;28;20201;-75
2023/08/15 09:05:12;;;;;;;4.60;4.20;;;;;;;26.30;100.00;98152.66;5054464;28;20209;-75
2023/08/15 09:07:38;;;;;;;7.50;5.03;;;;;;;26.32;100.00;98155.06;5054774;28;20212;-74
2023/08/15 09:10:06;;;;;;;6.97;5.40;;;;;;;26.41;100.00;98153.94;5052821;28;20233;-75
2023/08/15 09:12:39;;;;;;;7.57;5.18;;;;;;;26.35;100.00;98157.13;5050960;28;20255;-76
2023/08/15 09:15:10;;;;;;;8.90;5.57;;;;;;;26.42;100.00;98157.47;5054041;28;20212;-76
2023/08/15 09:17:38;;;;;;;8.27;6.10;;;;;;;26.51;100.00;98161.81;5054522;28;20189;-75
2023/08/15 09:20:15;;;;;;;8.43;5.97;;;;;;;26.69;100.00;98154.50;5053641;28;20225;-76
2023/08/15 09:22:45;;;;;;;7.30;5.72;;;;;;;26.59;100.00;98161.06;5054375;28;20271;-76
2023/08/15 09:25:14;;;;;;;9.00;5.93;;;;;;;26.78;100.00;98150.63;5054295;28;20205;-78
2023/08/15 09:27:41;;;;;;;9.63;6.22;;;;;;;27.01;100.00;98154.78;5054852;28;20291;-78
2023/08/15 09:30:13;;;;;;;7.63;5.57;;;;;;;26.97;100.00;98161.22;5053826;28;20236;-78
2023/08/15 09:32:40;;;;;;;8.38;5.57;;;;;;;27.09;100.00;98159.44;5053851;28;20228;-77
2023/08/15 09:35:09;;;;;;;9.98;5.78;;;;;;;26.99;100.00;98164.44;5052720;28;20205;-78
2023/08/15 09:37:41;;;;;;;6.70;5.93;;;;;;;27.14;100.00;98153.81;5054535;28;20211;-77
2023/08/15 09:40:08;;;;;;;7.47;5.95;;;;;;;27.17;100.00;98160.56;5051978;28;20233;-77
2023/08/15 09:42:35;;;;;;;6.20;5.55;;;;;;;27.19;100.00;98169.28;5053700;28;20648;-78
2023/08/15 09:45:03;;;;;;;7.30;5.97;;;;;;;27.21;100.00;98164.28;5054447;28;20227;-77
2023/08/15 09:47:30;;;;;;;8.35;5.53;;;;;;;27.09;100.00;98147.75;5036232;28;20209;-78
2023/08/15 09:49:57;;;;;;;6.47;4.25;;;;;;;27.04;90.46;98161.53;5036888;28;20221;-77
2023/08/15 09:52:25;;;;;;;5.68;3.50;;;;;;;27.14;80.57;98161.22;5054452;28;20225;-78
2023/08/15 09:54:51;;;;;;;6.63;3.75;;;;;;;27.12;80.96;98165.41;5054431;28;20219;-77
2023/08/15 09:57:17;;;;;;;3.40;2.88;;;;;;;27.10;73.88;98152.06;5036752;28;20227;-77
2023/08/15 09:59:44;;;;;;;6.78;2.83;;;;;;;27.08;76.26;98162.50;5054193;28;20235;-77
2023/08/15 10:02:21;;;;;;;4.50;2.80;;;;;;;27.03;73.13;98147.09;5053866;28;20201;-78
2023/08/15 10:04:56;;;;;;;3.22;2.70;;;;;;;27.19;74.26;98150.16;5036947;28;20666;-78
2023/08/15 10:07:26;;;;;;;3.22;2.70;;;;;;;27.12;74.98;98149.03;5038571;28;20660;-79
2023/08/15 10:09:53;;;;;;;3.10;2.50;;;;;;;27.14;72.18;98148.34;5054980;28;20229;-78
2023/08/15 10:12:20;;;;;;;4.30;2.67;;;;;;;27.02;72.84;98155.59;5055578;28;20672;-78
2023/08/15 10:14:47;;;;;;;6.07;2.65;;;;;;;27.01;72.47;98162.97;5055200;28;20201;-78
2023/08/15 10:17:13;;;;;;;3.72;2.90;;;;;;;27.00;72.96;98166.84;5054587;28;20284;-78
2023/08/15 10:19:46;;;;;;;5.38;2.35;;;;;;;26.93;78.01;98166.53;5054821;28;20229;-78
2023/08/15 10:22:18;;;;;;;4.97;2.67;;;;;;;26.99;73.45;98161.69;5054873;28;20235;-78
2023/08/15 10:24:45;;;;;;;5.80;2.75;;;;;;;27.02;74.11;98164.59;5054791;28;20580;-78
2023/08/15 10:27:11;;;;;;;5.15;2.80;;;;;;;27.07;75.60;98163.63;5054377;28;20216;-78
2023/08/15 10:29:53;;;;;;;4.65;2.70;;;;;;;27.08;75.53;98171.50;5054260;28;20224;-75
2023/08/15 10:32:25;;;;;;;4.45;2.47;;;;;;;27.10;73.72;98173.91;5053457;28;20232;-75
2023/08/15 10:34:58;;;;;;;4.18;2.90;;;;;;;27.10;73.63;98182.09;5053069;28;20280;-75
2023/08/15 10:37:36;;;;;;;4.50;2.47;;;;;;;27.02;72.59;98183.72;5035570;28;20194;-75
2023/08/15 10:40:11;;;;;;;5.25;2.80;;;;;;;27.08;74.01;98190.59;5052624;28;20247;-75
2023/08/15 10:43:00;;;;;;;4.18;2.60;;;;;;;27.08;76.21;98178.88;5052482;28;20205;-75
2023/08/15 10:45:27;;;;;;;5.43;2.97;;;;;;;27.03;75.63;98188.03;5052581;28;20672;-75
2023/08/15 10:47:57;;;;;;;3.72;2.30;;;;;;;27.11;75.82;98186.41;5053084;28;20209;-75
2023/08/15 10:50:24;;;;;;;5.07;2.70;;;;;;;27.28;74.57;98183.72;5053067;28;20231;-75
2023/08/15 10:53:02;;;;;;;3.63;2.60;;;;;;;27.46;74.50;98179.81;5053175;28;20225;-75
2023/08/15 10:55:30;;;;;;;3.97;2.70;;;;;;;27.69;72.35;98186.66;5052281;28;20209;-75
2023/08/15 10:57:57;;;;;;;4.03;2.97;;;;;;;28.20;73.02;98186.47;5052844;28;20212;-75
2023/08/15 11:00:26;;;;;;;5.85;2.33;;;;;;;28.65;65.79;98192.19;5053268;28;20225;-75
2023/08/15 11:02:52;;;;;;;4.00;2.30;;;;;;;28.43;63.97;98184.31;5053127;28;20208;-75
2023/08/15 11:05:20;;;;;;;5.50;2.30;;;;;;;28.32;64.45;98183.03;5052939;28;20207;-75
2023/08/15 11:07:46;;;;;;;3.90;2.22;;;;;;;28.23;61.50;98188.56;5052920;28;20553;-75
2023/08/15 11:10:13;;;;;;;5.30;2.50;;;;;;;28.21;64.26;98184.56;5052884;28;20240;-75
2023/08/15 11:12:50;;;;;;;3.30;2.42;;;;;;;28.19;63.28;98193.09;5052883;28;20225;-75
2023/08/15 11:15:17;;;;;;;3.92;2.33;;;;;;;28.09;62.49;98182.53;5053725;28;20620;-75
2023/08/15 11:17:47;;;;;;;2.95;2.55;;;;;;;27.87;65.90;98195.63;5053197;28;20240;-75
2023/08/15 11:20:14;;;;;;;3.03;2.28;;;;;;;27.74;70.83;98188.41;5052734;28;20231;-75
2023/08/15 11:22:41;;;;;;;4.35;2.40;;;;;;;27.60;66.24;98190.53;5052738;28;20216;-75
2023/08/15 11:25:08;;;;;;;3.20;2.13;;;;;;;27.44;67.23;98198.44;5052593;28;20201;-75
2023/08/15 11:27:45;;;;;;;3.15;2.42;;;;;;;27.60;66.33;98185.91;5052406;28;20673;-75
2023/08/15 11:30:12;;;;;;;4.07;2.75;;;;;;;27.77;66.65;98185.84;5052518;28;20229;-75